sensor_id;sensor_type;location;lat;lon;timestamp;P1;durP1;ratioP1;P2;durP2;ratioP2
10212;SDS011;5150;51.400;6.692;2022-08-18T00:01:07;21.55;;;19.83;;
10212;SDS011;5150;51.400;6.692;2022-08-18T00:04:32;23.83;;;21.83;;
10212;SDS011;5150;51.400;6.692;2022-08-18T00:08:10;20.98;;;19.27;;
10212;SDS011;5150;51.400;6.692;2022-08-18T00:11:34;21.70;;;19.90;;
10212;SDS011;5150;51.400;6.692;2022-08-18T00:15:04;21.00;;;19.30;;
10212;SDS011;5150;51.400;6.692;2022-08-18T00:18:28;22.77;;;20.77;;
10212;SDS011;5150;51.400;6.692;2022-08-18T00:21:51;22.48;;;20.58;;
10212;SDS011;5150;51.400;6.692;2022-08-18T00:25:15;21.35;;;19.55;;
10212;SDS011;5150;51.400;6.692;2022-08-18T00:28:40;19.88;;;18.20;;
10212;SDS011;5150;51.400;6.692;2022-08-18T00:32:11;19.10;;;17.60;;
10212;SDS011;5150;51.400;6.692;2022-08-18T00:35:36;21.88;;;20.05;;
10212;SDS011;5150;51.400;6.692;2022-08-18T00:39:00;19.63;;;18.02;;
10212;SDS011;5150;51.400;6.692;2022-08-18T00:42:24;20.92;;;19.27;;
10212;SDS011;5150;51.400;6.692;2022-08-18T00:45:51;19.65;;;17.85;;
10212;SDS011;5150;51.400;6.692;2022-08-18T00:49:16;20.42;;;18.52;;
10212;SDS011;5150;51.400;6.692;2022-08-18T00:52:39;20.80;;;19.10;;
10212;SDS011;5150;51.400;6.692;2022-08-18T00:56:04;20.60;;;18.90;;
10212;SDS011;5150;51.400;6.692;2022-08-18T00:59:32;21.05;;;19.33;;
10212;SDS011;5150;51.400;6.692;2022-08-18T01:02:59;21.95;;;20.08;;
10212;SDS011;5150;51.400;6.692;2022-08-18T01:06:31;33.10;;;29.92;;
10212;SDS011;5150;51.400;6.692;2022-08-18T01:09:59;22.65;;;20.77;;
10212;SDS011;5150;51.400;6.692;2022-08-18T01:13:26;24.75;;;22.45;;
10212;SDS011;5150;51.400;6.692;2022-08-18T01:16:51;25.98;;;23.67;;
10212;SDS011;5150;51.400;6.692;2022-08-18T01:20:33;25.55;;;23.38;;
10212;SDS011;5150;51.400;6.692;2022-08-18T01:24:19;23.80;;;21.75;;
10212;SDS011;5150;51.400;6.692;2022-08-18T01:28:05;38.10;;;34.40;;
10212;SDS011;5150;51.400;6.692;2022-08-18T01:31:29;26.83;;;24.48;;
10212;SDS011;5150;51.400;6.692;2022-08-18T01:34:58;24.40;;;22.10;;
10212;SDS011;5150;51.400;6.692;2022-08-18T01:38:21;26.33;;;23.77;;
10212;SDS011;5150;51.400;6.692;2022-08-18T01:41:45;34.90;;;31.50;;
10212;SDS011;5150;51.400;6.692;2022-08-18T01:45:09;25.85;;;23.58;;
10212;SDS011;5150;51.400;6.692;2022-08-18T01:48:33;32.15;;;28.88;;
10212;SDS011;5150;51.400;6.692;2022-08-18T01:51:58;29.63;;;26.65;;
10212;SDS011;5150;51.400;6.692;2022-08-18T01:55:21;39.40;;;35.25;;
10212;SDS011;5150;51.400;6.692;2022-08-18T01:58:46;38.22;;;34.22;;
10212;SDS011;5150;51.400;6.692;2022-08-18T02:02:14;38.85;;;35.00;;
10212;SDS011;5150;51.400;6.692;2022-08-18T02:05:41;45.58;;;40.75;;
10212;SDS011;5150;51.400;6.692;2022-08-18T02:09:07;40.95;;;36.83;;
10212;SDS011;5150;51.400;6.692;2022-08-18T02:12:30;37.28;;;33.60;;
10212;SDS011;5150;51.400;6.692;2022-08-18T02:15:55;44.08;;;39.50;;
10212;SDS011;5150;51.400;6.692;2022-08-18T02:19:18;37.33;;;33.58;;
10212;SDS011;5150;51.400;6.692;2022-08-18T02:22:41;47.60;;;42.28;;
10212;SDS011;5150;51.400;6.692;2022-08-18T02:26:05;47.08;;;41.90;;
10212;SDS011;5150;51.400;6.692;2022-08-18T02:29:29;50.97;;;45.55;;
10212;SDS011;5150;51.400;6.692;2022-08-18T02:32:55;46.80;;;41.75;;
10212;SDS011;5150;51.400;6.692;2022-08-18T02:36:19;46.92;;;42.08;;
10212;SDS011;5150;51.400;6.692;2022-08-18T02:39:45;48.05;;;42.80;;
10212;SDS011;5150;51.400;6.692;2022-08-18T02:43:09;52.97;;;45.22;;
10212;SDS011;5150;51.400;6.692;2022-08-18T02:46:32;45.47;;;39.50;;
10212;SDS011;5150;51.400;6.692;2022-08-18T02:49:56;38.50;;;33.90;;
10212;SDS011;5150;51.400;6.692;2022-08-18T02:53:19;44.72;;;35.00;;
10212;SDS011;5150;51.400;6.692;2022-08-18T02:56:43;32.60;;;29.10;;
10212;SDS011;5150;51.400;6.692;2022-08-18T03:00:07;45.65;;;40.65;;
10212;SDS011;5150;51.400;6.692;2022-08-18T03:03:33;29.48;;;26.27;;
10212;SDS011;5150;51.400;6.692;2022-08-18T03:06:58;27.77;;;25.08;;
10212;SDS011;5150;51.400;6.692;2022-08-18T03:10:24;31.92;;;28.58;;
10212;SDS011;5150;51.400;6.692;2022-08-18T03:13:54;32.28;;;28.08;;
10212;SDS011;5150;51.400;6.692;2022-08-18T03:17:18;30.88;;;27.63;;
10212;SDS011;5150;51.400;6.692;2022-08-18T03:20:41;27.63;;;24.83;;
10212;SDS011;5150;51.400;6.692;2022-08-18T03:24:09;27.08;;;24.30;;
10212;SDS011;5150;51.400;6.692;2022-08-18T03:27:32;27.67;;;24.90;;
10212;SDS011;5150;51.400;6.692;2022-08-18T03:30:55;26.10;;;23.50;;
10212;SDS011;5150;51.400;6.692;2022-08-18T03:34:18;26.60;;;23.85;;
10212;SDS011;5150;51.400;6.692;2022-08-18T03:37:42;24.08;;;21.83;;
10212;SDS011;5150;51.400;6.692;2022-08-18T03:41:07;24.65;;;22.13;;
10212;SDS011;5150;51.400;6.692;2022-08-18T03:44:32;29.83;;;26.88;;
10212;SDS011;5150;51.400;6.692;2022-08-18T03:47:56;24.85;;;22.35;;
10212;SDS011;5150;51.400;6.692;2022-08-18T03:51:21;23.65;;;21.17;;
10212;SDS011;5150;51.400;6.692;2022-08-18T03:54:46;24.65;;;22.23;;
10212;SDS011;5150;51.400;6.692;2022-08-18T03:58:11;23.40;;;21.05;;
10212;SDS011;5150;51.400;6.692;2022-08-18T04:01:36;22.52;;;20.42;;
10212;SDS011;5150;51.400;6.692;2022-08-18T04:05:01;22.35;;;20.02;;
10212;SDS011;5150;51.400;6.692;2022-08-18T04:08:25;23.90;;;21.50;;
10212;SDS011;5150;51.400;6.692;2022-08-18T04:11:48;22.50;;;20.27;;
10212;SDS011;5150;51.400;6.692;2022-08-18T04:15:13;20.05;;;18.15;;
10212;SDS011;5150;51.400;6.692;2022-08-18T04:18:37;23.67;;;21.42;;
10212;SDS011;5150;51.400;6.692;2022-08-18T04:22:00;22.33;;;20.08;;
10212;SDS011;5150;51.400;6.692;2022-08-18T04:25:24;22.42;;;20.23;;
10212;SDS011;5150;51.400;6.692;2022-08-18T04:28:53;32.60;;;29.08;;
10212;SDS011;5150;51.400;6.692;2022-08-18T04:32:18;25.15;;;22.52;;
10212;SDS011;5150;51.400;6.692;2022-08-18T04:35:41;39.97;;;33.17;;
10212;SDS011;5150;51.400;6.692;2022-08-18T04:39:07;28.60;;;25.38;;
10212;SDS011;5150;51.400;6.692;2022-08-18T04:42:31;25.20;;;22.70;;
10212;SDS011;5150;51.400;6.692;2022-08-18T04:46:00;22.75;;;20.45;;
10212;SDS011;5150;51.400;6.692;2022-08-18T04:49:25;24.50;;;21.90;;
10212;SDS011;5150;51.400;6.692;2022-08-18T04:52:50;24.92;;;22.25;;
10212;SDS011;5150;51.400;6.692;2022-08-18T04:56:32;21.00;;;18.90;;
10212;SDS011;5150;51.400;6.692;2022-08-18T04:59:57;31.77;;;24.98;;
10212;SDS011;5150;51.400;6.692;2022-08-18T05:03:21;47.00;;;37.35;;
10212;SDS011;5150;51.400;6.692;2022-08-18T05:06:48;35.15;;;29.10;;
10212;SDS011;5150;51.400;6.692;2022-08-18T05:10:11;32.08;;;23.40;;
10212;SDS011;5150;51.400;6.692;2022-08-18T05:13:37;28.40;;;23.83;;
10212;SDS011;5150;51.400;6.692;2022-08-18T05:17:02;28.63;;;24.13;;
10212;SDS011;5150;51.400;6.692;2022-08-18T05:20:25;25.27;;;22.45;;
10212;SDS011;5150;51.400;6.692;2022-08-18T05:23:50;37.13;;;28.88;;
10212;SDS011;5150;51.400;6.692;2022-08-18T05:27:13;33.30;;;26.20;;
10212;SDS011;5150;51.400;6.692;2022-08-18T05:30:36;35.20;;;28.50;;
10212;SDS011;5150;51.400;6.692;2022-08-18T05:33:59;43.42;;;32.95;;
10212;SDS011;5150;51.400;6.692;2022-08-18T05:37:27;41.95;;;31.02;;
10212;SDS011;5150;51.400;6.692;2022-08-18T05:41:01;39.85;;;31.33;;
10212;SDS011;5150;51.400;6.692;2022-08-18T05:44:35;35.50;;;29.23;;
10212;SDS011;5150;51.400;6.692;2022-08-18T05:48:01;41.17;;;35.58;;
10212;SDS011;5150;51.400;6.692;2022-08-18T05:51:26;40.28;;;30.70;;
10212;SDS011;5150;51.400;6.692;2022-08-18T05:54:54;35.05;;;29.65;;
10212;SDS011;5150;51.400;6.692;2022-08-18T05:58:42;35.58;;;31.40;;
10212;SDS011;5150;51.400;6.692;2022-08-18T06:02:10;35.38;;;29.95;;
10212;SDS011;5150;51.400;6.692;2022-08-18T06:05:39;42.88;;;31.48;;
10212;SDS011;5150;51.400;6.692;2022-08-18T06:09:11;33.95;;;29.65;;
10212;SDS011;5150;51.400;6.692;2022-08-18T06:12:39;39.80;;;29.70;;
10212;SDS011;5150;51.400;6.692;2022-08-18T06:16:10;40.58;;;30.98;;
10212;SDS011;5150;51.400;6.692;2022-08-18T06:19:42;33.03;;;29.52;;
10212;SDS011;5150;51.400;6.692;2022-08-18T06:23:16;33.05;;;27.83;;
10212;SDS011;5150;51.400;6.692;2022-08-18T06:26:47;32.33;;;27.73;;
10212;SDS011;5150;51.400;6.692;2022-08-18T06:30:18;31.75;;;27.67;;
10212;SDS011;5150;51.400;6.692;2022-08-18T06:33:48;35.47;;;28.92;;
10212;SDS011;5150;51.400;6.692;2022-08-18T06:37:19;34.17;;;29.60;;
10212;SDS011;5150;51.400;6.692;2022-08-18T06:40:59;38.95;;;34.38;;
10212;SDS011;5150;51.400;6.692;2022-08-18T06:44:24;32.20;;;26.70;;
10212;SDS011;5150;51.400;6.692;2022-08-18T06:47:53;30.88;;;27.60;;
10212;SDS011;5150;51.400;6.692;2022-08-18T06:51:23;34.97;;;27.90;;
10212;SDS011;5150;51.400;6.692;2022-08-18T06:54:49;26.52;;;23.73;;
10212;SDS011;5150;51.400;6.692;2022-08-18T06:58:20;30.77;;;27.58;;
10212;SDS011;5150;51.400;6.692;2022-08-18T07:01:51;31.65;;;28.30;;
10212;SDS011;5150;51.400;6.692;2022-08-18T07:05:25;31.02;;;27.85;;
10212;SDS011;5150;51.400;6.692;2022-08-18T07:08:52;39.10;;;35.10;;
10212;SDS011;5150;51.400;6.692;2022-08-18T07:12:21;31.05;;;27.88;;
10212;SDS011;5150;51.400;6.692;2022-08-18T07:15:53;30.40;;;26.77;;
10212;SDS011;5150;51.400;6.692;2022-08-18T07:19:39;30.33;;;27.10;;
10212;SDS011;5150;51.400;6.692;2022-08-18T07:23:03;30.52;;;27.38;;
10212;SDS011;5150;51.400;6.692;2022-08-18T07:26:30;34.80;;;31.13;;
10212;SDS011;5150;51.400;6.692;2022-08-18T07:30:24;30.95;;;27.63;;
10212;SDS011;5150;51.400;6.692;2022-08-18T07:33:50;27.45;;;24.55;;
10212;SDS011;5150;51.400;6.692;2022-08-18T07:37:18;29.48;;;26.35;;
10212;SDS011;5150;51.400;6.692;2022-08-18T07:40:50;25.55;;;22.90;;
10212;SDS011;5150;51.400;6.692;2022-08-18T07:44:20;29.67;;;26.52;;
10212;SDS011;5150;51.400;6.692;2022-08-18T07:47:48;22.42;;;20.23;;
10212;SDS011;5150;51.400;6.692;2022-08-18T07:51:18;21.80;;;19.67;;
10212;SDS011;5150;51.400;6.692;2022-08-18T07:54:49;27.25;;;22.60;;
10212;SDS011;5150;51.400;6.692;2022-08-18T07:58:22;21.23;;;18.98;;
10212;SDS011;5150;51.400;6.692;2022-08-18T08:01:51;23.27;;;20.98;;
10212;SDS011;5150;51.400;6.692;2022-08-18T08:05:24;29.00;;;25.85;;
10212;SDS011;5150;51.400;6.692;2022-08-18T08:09:02;24.20;;;21.90;;
10212;SDS011;5150;51.400;6.692;2022-08-18T08:12:41;19.58;;;17.55;;
10212;SDS011;5150;51.400;6.692;2022-08-18T08:16:12;23.48;;;21.20;;
10212;SDS011;5150;51.400;6.692;2022-08-18T08:19:55;21.70;;;19.60;;
10212;SDS011;5150;51.400;6.692;2022-08-18T08:23:32;23.90;;;21.45;;
10212;SDS011;5150;51.400;6.692;2022-08-18T08:27:07;17.73;;;16.20;;
10212;SDS011;5150;51.400;6.692;2022-08-18T08:30:38;15.98;;;14.45;;
10212;SDS011;5150;51.400;6.692;2022-08-18T08:34:11;13.52;;;12.23;;
10212;SDS011;5150;51.400;6.692;2022-08-18T08:37:41;15.95;;;14.45;;
10212;SDS011;5150;51.400;6.692;2022-08-18T08:41:10;13.93;;;12.07;;
10212;SDS011;5150;51.400;6.692;2022-08-18T08:44:41;16.58;;;15.07;;
10212;SDS011;5150;51.400;6.692;2022-08-18T08:48:21;12.02;;;10.82;;
10212;SDS011;5150;51.400;6.692;2022-08-18T08:51:47;13.35;;;12.00;;
10212;SDS011;5150;51.400;6.692;2022-08-18T08:55:19;14.38;;;12.85;;
10212;SDS011;5150;51.400;6.692;2022-08-18T08:58:47;15.45;;;14.10;;
10212;SDS011;5150;51.400;6.692;2022-08-18T09:02:20;13.05;;;11.85;;
10212;SDS011;5150;51.400;6.692;2022-08-18T09:06:13;13.27;;;11.23;;
10212;SDS011;5150;51.400;6.692;2022-08-18T09:09:49;17.13;;;15.32;;
10212;SDS011;5150;51.400;6.692;2022-08-18T09:21:27;10.07;;;9.27;;
10212;SDS011;5150;51.400;6.692;2022-08-18T09:24:55;12.63;;;11.45;;
10212;SDS011;5150;51.400;6.692;2022-08-18T09:28:21;10.50;;;9.27;;
10212;SDS011;5150;51.400;6.692;2022-08-18T09:39:51;10.55;;;9.65;;
10212;SDS011;5150;51.400;6.692;2022-08-18T09:43:52;11.10;;;10.13;;
10212;SDS011;5150;51.400;6.692;2022-08-18T09:47:59;10.77;;;9.82;;
10212;SDS011;5150;51.400;6.692;2022-08-18T09:51:31;14.70;;;10.70;;
10212;SDS011;5150;51.400;6.692;2022-08-18T09:55:04;13.93;;;12.55;;
10212;SDS011;5150;51.400;6.692;2022-08-18T09:58:50;11.63;;;10.73;;
10212;SDS011;5150;51.400;6.692;2022-08-18T10:06:18;11.05;;;10.13;;
10212;SDS011;5150;51.400;6.692;2022-08-18T10:09:57;10.68;;;9.77;;
10212;SDS011;5150;51.400;6.692;2022-08-18T10:13:51;11.98;;;10.70;;
10212;SDS011;5150;51.400;6.692;2022-08-18T10:17:37;10.43;;;9.45;;
10212;SDS011;5150;51.400;6.692;2022-08-18T10:21:11;8.93;;;8.23;;
10212;SDS011;5150;51.400;6.692;2022-08-18T10:24:45;11.43;;;10.40;;
10212;SDS011;5150;51.400;6.692;2022-08-18T10:32:36;10.18;;;9.10;;
10212;SDS011;5150;51.400;6.692;2022-08-18T10:36:04;12.48;;;11.27;;
10212;SDS011;5150;51.400;6.692;2022-08-18T10:39:42;11.35;;;10.18;;
10212;SDS011;5150;51.400;6.692;2022-08-18T10:43:18;10.07;;;9.07;;
10212;SDS011;5150;51.400;6.692;2022-08-18T10:47:18;11.80;;;10.65;;
10212;SDS011;5150;51.400;6.692;2022-08-18T10:51:05;12.18;;;10.70;;
10212;SDS011;5150;51.400;6.692;2022-08-18T10:54:48;9.88;;;8.98;;
10212;SDS011;5150;51.400;6.692;2022-08-18T10:58:39;10.73;;;9.75;;
10212;SDS011;5150;51.400;6.692;2022-08-18T11:02:13;12.05;;;10.98;;
10212;SDS011;5150;51.400;6.692;2022-08-18T11:05:58;15.25;;;11.57;;
10212;SDS011;5150;51.400;6.692;2022-08-18T11:09:24;11.60;;;10.50;;
10212;SDS011;5150;51.400;6.692;2022-08-18T11:12:57;11.73;;;10.50;;
10212;SDS011;5150;51.400;6.692;2022-08-18T11:16:48;12.65;;;10.38;;
10212;SDS011;5150;51.400;6.692;2022-08-18T11:20:16;12.88;;;10.57;;
10212;SDS011;5150;51.400;6.692;2022-08-18T11:23:46;13.70;;;10.70;;
10212;SDS011;5150;51.400;6.692;2022-08-18T11:27:25;10.18;;;9.25;;
10212;SDS011;5150;51.400;6.692;2022-08-18T11:30:51;11.43;;;10.32;;
10212;SDS011;5150;51.400;6.692;2022-08-18T11:34:18;11.00;;;9.90;;
10212;SDS011;5150;51.400;6.692;2022-08-18T11:38:11;11.15;;;10.20;;
10212;SDS011;5150;51.400;6.692;2022-08-18T11:41:43;11.68;;;10.43;;
10212;SDS011;5150;51.400;6.692;2022-08-18T11:45:12;15.27;;;9.40;;
10212;SDS011;5150;51.400;6.692;2022-08-18T11:48:48;12.23;;;9.88;;
10212;SDS011;5150;51.400;6.692;2022-08-18T11:52:16;11.50;;;10.43;;
10212;SDS011;5150;51.400;6.692;2022-08-18T11:56:01;10.23;;;9.43;;
10212;SDS011;5150;51.400;6.692;2022-08-18T11:59:37;10.10;;;9.10;;
10212;SDS011;5150;51.400;6.692;2022-08-18T12:03:28;10.18;;;9.10;;
10212;SDS011;5150;51.400;6.692;2022-08-18T12:07:00;9.32;;;8.55;;
10212;SDS011;5150;51.400;6.692;2022-08-18T12:10:27;10.75;;;9.90;;
10212;SDS011;5150;51.400;6.692;2022-08-18T12:13:56;9.82;;;9.02;;
10212;SDS011;5150;51.400;6.692;2022-08-18T12:17:45;12.05;;;9.00;;
10212;SDS011;5150;51.400;6.692;2022-08-18T12:21:13;10.07;;;9.25;;
10212;SDS011;5150;51.400;6.692;2022-08-18T12:24:39;9.75;;;8.90;;
10212;SDS011;5150;51.400;6.692;2022-08-18T12:28:03;9.23;;;8.38;;
10212;SDS011;5150;51.400;6.692;2022-08-18T12:31:31;9.00;;;8.30;;
10212;SDS011;5150;51.400;6.692;2022-08-18T12:35:08;10.02;;;9.05;;
10212;SDS011;5150;51.400;6.692;2022-08-18T12:38:33;10.10;;;9.20;;
10212;SDS011;5150;51.400;6.692;2022-08-18T12:42:17;8.65;;;7.95;;
10212;SDS011;5150;51.400;6.692;2022-08-18T12:45:41;10.45;;;9.35;;
10212;SDS011;5150;51.400;6.692;2022-08-18T12:49:05;9.20;;;7.68;;
10212;SDS011;5150;51.400;6.692;2022-08-18T12:52:32;9.25;;;7.82;;
10212;SDS011;5150;51.400;6.692;2022-08-18T12:55:55;8.23;;;7.53;;
10212;SDS011;5150;51.400;6.692;2022-08-18T12:59:19;9.52;;;8.63;;
10212;SDS011;5150;51.400;6.692;2022-08-18T13:02:44;10.25;;;7.95;;
10212;SDS011;5150;51.400;6.692;2022-08-18T13:06:08;9.10;;;8.40;;
10212;SDS011;5150;51.400;6.692;2022-08-18T13:09:33;10.65;;;9.38;;
10212;SDS011;5150;51.400;6.692;2022-08-18T13:13:15;8.05;;;7.45;;
10212;SDS011;5150;51.400;6.692;2022-08-18T13:16:41;8.95;;;8.05;;
10212;SDS011;5150;51.400;6.692;2022-08-18T13:20:15;7.90;;;7.30;;
10212;SDS011;5150;51.400;6.692;2022-08-18T13:23:39;8.63;;;7.68;;
10212;SDS011;5150;51.400;6.692;2022-08-18T13:27:02;8.30;;;7.60;;
10212;SDS011;5150;51.400;6.692;2022-08-18T13:30:43;9.18;;;8.38;;
10212;SDS011;5150;51.400;6.692;2022-08-18T13:34:08;8.43;;;7.72;;
10212;SDS011;5150;51.400;6.692;2022-08-18T13:37:35;9.52;;;8.32;;
10212;SDS011;5150;51.400;6.692;2022-08-18T13:40:59;10.75;;;8.25;;
10212;SDS011;5150;51.400;6.692;2022-08-18T13:44:27;8.13;;;7.32;;
10212;SDS011;5150;51.400;6.692;2022-08-18T13:47:50;7.35;;;6.70;;
10212;SDS011;5150;51.400;6.692;2022-08-18T13:51:20;7.55;;;7.05;;
10212;SDS011;5150;51.400;6.692;2022-08-18T13:54:46;7.75;;;7.05;;
10212;SDS011;5150;51.400;6.692;2022-08-18T13:58:14;7.57;;;6.97;;
10212;SDS011;5150;51.400;6.692;2022-08-18T14:01:41;7.13;;;6.60;;
10212;SDS011;5150;51.400;6.692;2022-08-18T14:05:13;7.43;;;6.72;;
10212;SDS011;5150;51.400;6.692;2022-08-18T14:08:38;8.30;;;7.68;;
10212;SDS011;5150;51.400;6.692;2022-08-18T14:12:02;7.53;;;7.03;;
10212;SDS011;5150;51.400;6.692;2022-08-18T14:15:43;7.88;;;7.28;;
10212;SDS011;5150;51.400;6.692;2022-08-18T14:19:12;7.60;;;7.10;;
10212;SDS011;5150;51.400;6.692;2022-08-18T14:22:53;8.15;;;7.43;;
10212;SDS011;5150;51.400;6.692;2022-08-18T14:26:55;7.57;;;6.97;;
10212;SDS011;5150;51.400;6.692;2022-08-18T14:30:18;7.10;;;6.60;;
10212;SDS011;5150;51.400;6.692;2022-08-18T14:33:41;8.90;;;7.18;;
10212;SDS011;5150;51.400;6.692;2022-08-18T14:37:12;7.97;;;7.28;;
10212;SDS011;5150;51.400;6.692;2022-08-18T14:40:35;7.53;;;7.03;;
10212;SDS011;5150;51.400;6.692;2022-08-18T14:44:04;8.52;;;7.75;;
10212;SDS011;5150;51.400;6.692;2022-08-18T14:47:34;7.47;;;6.97;;
10212;SDS011;5150;51.400;6.692;2022-08-18T14:50:58;7.18;;;6.68;;
10212;SDS011;5150;51.400;6.692;2022-08-18T14:54:23;7.22;;;6.72;;
10212;SDS011;5150;51.400;6.692;2022-08-18T14:57:49;7.72;;;7.03;;
10212;SDS011;5150;51.400;6.692;2022-08-18T15:01:13;7.20;;;6.60;;
10212;SDS011;5150;51.400;6.692;2022-08-18T15:04:38;6.55;;;6.05;;
10212;SDS011;5150;51.400;6.692;2022-08-18T15:08:18;7.13;;;6.53;;
10212;SDS011;5150;51.400;6.692;2022-08-18T15:11:46;7.28;;;6.75;;
10212;SDS011;5150;51.400;6.692;2022-08-18T15:15:10;7.35;;;6.85;;
10212;SDS011;5150;51.400;6.692;2022-08-18T15:18:39;7.28;;;6.78;;
10212;SDS011;5150;51.400;6.692;2022-08-18T15:22:04;7.28;;;6.30;;
10212;SDS011;5150;51.400;6.692;2022-08-18T15:25:45;7.65;;;7.05;;
10212;SDS011;5150;51.400;6.692;2022-08-18T15:29:11;7.88;;;7.07;;
10212;SDS011;5150;51.400;6.692;2022-08-18T15:32:35;9.60;;;6.78;;
10212;SDS011;5150;51.400;6.692;2022-08-18T15:36:00;7.03;;;6.53;;
10212;SDS011;5150;51.400;6.692;2022-08-18T15:39:30;6.72;;;6.13;;
10212;SDS011;5150;51.400;6.692;2022-08-18T15:42:53;7.50;;;6.75;;
10212;SDS011;5150;51.400;6.692;2022-08-18T15:46:21;7.88;;;7.07;;
10212;SDS011;5150;51.400;6.692;2022-08-18T15:49:46;9.95;;;6.88;;
10212;SDS011;5150;51.400;6.692;2022-08-18T15:53:13;7.03;;;6.53;;
10212;SDS011;5150;51.400;6.692;2022-08-18T15:56:37;7.03;;;6.38;;
10212;SDS011;5150;51.400;6.692;2022-08-18T16:00:04;6.70;;;6.10;;
10212;SDS011;5150;51.400;6.692;2022-08-18T16:03:32;10.60;;;6.75;;
10212;SDS011;5150;51.400;6.692;2022-08-18T16:06:55;7.57;;;6.68;;
10212;SDS011;5150;51.400;6.692;2022-08-18T16:10:20;9.05;;;7.00;;
10212;SDS011;5150;51.400;6.692;2022-08-18T16:13:46;8.07;;;7.20;;
10212;SDS011;5150;51.400;6.692;2022-08-18T16:17:10;7.05;;;6.32;;
10212;SDS011;5150;51.400;6.692;2022-08-18T16:20:44;11.90;;;7.50;;
10212;SDS011;5150;51.400;6.692;2022-08-18T16:24:07;7.40;;;6.70;;
10212;SDS011;5150;51.400;6.692;2022-08-18T16:27:32;6.95;;;6.45;;
10212;SDS011;5150;51.400;6.692;2022-08-18T16:30:55;7.15;;;6.43;;
10212;SDS011;5150;51.400;6.692;2022-08-18T16:34:19;8.10;;;7.00;;
10212;SDS011;5150;51.400;6.692;2022-08-18T16:37:42;11.25;;;7.03;;
10212;SDS011;5150;51.400;6.692;2022-08-18T16:41:07;7.07;;;6.38;;
10212;SDS011;5150;51.400;6.692;2022-08-18T16:44:35;6.80;;;6.20;;
10212;SDS011;5150;51.400;6.692;2022-08-18T16:47:59;8.35;;;6.35;;
10212;SDS011;5150;51.400;6.692;2022-08-18T16:51:23;8.98;;;6.32;;
10212;SDS011;5150;51.400;6.692;2022-08-18T16:54:47;7.93;;;6.88;;
10212;SDS011;5150;51.400;6.692;2022-08-18T16:58:18;9.52;;;6.82;;
10212;SDS011;5150;51.400;6.692;2022-08-18T17:02:00;9.52;;;7.57;;
10212;SDS011;5150;51.400;6.692;2022-08-18T17:05:40;6.72;;;6.18;;
10212;SDS011;5150;51.400;6.692;2022-08-18T17:09:04;6.80;;;6.22;;
10212;SDS011;5150;51.400;6.692;2022-08-18T17:12:30;6.53;;;5.97;;
10212;SDS011;5150;51.400;6.692;2022-08-18T17:15:54;8.27;;;5.75;;
10212;SDS011;5150;51.400;6.692;2022-08-18T17:19:19;6.35;;;5.95;;
10212;SDS011;5150;51.400;6.692;2022-08-18T17:22:42;7.35;;;6.65;;
10212;SDS011;5150;51.400;6.692;2022-08-18T17:26:06;6.75;;;6.25;;
10212;SDS011;5150;51.400;6.692;2022-08-18T17:29:40;5.43;;;4.95;;
10212;SDS011;5150;51.400;6.692;2022-08-18T17:33:09;7.57;;;6.07;;
10212;SDS011;5150;51.400;6.692;2022-08-18T17:36:37;5.63;;;5.15;;
10212;SDS011;5150;51.400;6.692;2022-08-18T17:40:14;7.18;;;6.32;;
10212;SDS011;5150;51.400;6.692;2022-08-18T17:43:41;6.78;;;6.25;;
10212;SDS011;5150;51.400;6.692;2022-08-18T17:47:05;12.52;;;7.70;;
10212;SDS011;5150;51.400;6.692;2022-08-18T17:50:32;6.40;;;6.00;;
10212;SDS011;5150;51.400;6.692;2022-08-18T17:54:17;8.02;;;5.53;;
10212;SDS011;5150;51.400;6.692;2022-08-18T17:57:50;6.80;;;6.28;;
10212;SDS011;5150;51.400;6.692;2022-08-18T18:01:19;6.72;;;5.53;;
10212;SDS011;5150;51.400;6.692;2022-08-18T18:04:42;6.88;;;6.13;;
10212;SDS011;5150;51.400;6.692;2022-08-18T18:08:06;9.35;;;7.40;;
10212;SDS011;5150;51.400;6.692;2022-08-18T18:11:33;9.48;;;7.25;;
10212;SDS011;5150;51.400;6.692;2022-08-18T18:14:58;13.50;;;7.50;;
10212;SDS011;5150;51.400;6.692;2022-08-18T18:18:30;18.65;;;8.50;;
10212;SDS011;5150;51.400;6.692;2022-08-18T18:22:00;15.35;;;7.97;;
10212;SDS011;5150;51.400;6.692;2022-08-18T18:25:28;21.33;;;8.35;;
10212;SDS011;5150;51.400;6.692;2022-08-18T18:32:48;18.85;;;8.32;;
10212;SDS011;5150;51.400;6.692;2022-08-18T18:36:28;16.23;;;8.43;;
10212;SDS011;5150;51.400;6.692;2022-08-18T18:39:54;16.60;;;8.45;;
10212;SDS011;5150;51.400;6.692;2022-08-18T18:43:22;15.85;;;9.02;;
10212;SDS011;5150;51.400;6.692;2022-08-18T18:46:51;15.35;;;8.25;;
10212;SDS011;5150;51.400;6.692;2022-08-18T18:50:23;11.27;;;7.00;;
10212;SDS011;5150;51.400;6.692;2022-08-18T18:53:53;11.45;;;6.93;;
10212;SDS011;5150;51.400;6.692;2022-08-18T18:57:24;11.45;;;6.63;;
10212;SDS011;5150;51.400;6.692;2022-08-18T19:00:58;12.95;;;6.68;;
10212;SDS011;5150;51.400;6.692;2022-08-18T19:04:33;9.60;;;7.05;;
10212;SDS011;5150;51.400;6.692;2022-08-18T19:08:01;13.95;;;8.13;;
10212;SDS011;5150;51.400;6.692;2022-08-18T19:11:29;19.50;;;9.23;;
10212;SDS011;5150;51.400;6.692;2022-08-18T19:15:02;16.70;;;7.05;;
10212;SDS011;5150;51.400;6.692;2022-08-18T19:18:32;14.50;;;7.40;;
10212;SDS011;5150;51.400;6.692;2022-08-18T19:22:00;14.10;;;7.80;;
10212;SDS011;5150;51.400;6.692;2022-08-18T19:25:30;10.02;;;7.55;;
10212;SDS011;5150;51.400;6.692;2022-08-18T19:28:57;14.35;;;9.65;;
10212;SDS011;5150;51.400;6.692;2022-08-18T19:32:36;18.63;;;15.07;;
10212;SDS011;5150;51.400;6.692;2022-08-18T19:36:05;24.38;;;18.42;;
10212;SDS011;5150;51.400;6.692;2022-08-18T19:39:42;25.60;;;22.08;;
10212;SDS011;5150;51.400;6.692;2022-08-18T19:43:11;30.42;;;27.27;;
10212;SDS011;5150;51.400;6.692;2022-08-18T19:46:50;35.92;;;31.98;;
10212;SDS011;5150;51.400;6.692;2022-08-18T19:50:28;35.70;;;31.88;;
10212;SDS011;5150;51.400;6.692;2022-08-18T19:54:00;32.35;;;29.05;;
10212;SDS011;5150;51.400;6.692;2022-08-18T19:57:38;29.75;;;26.65;;
10212;SDS011;5150;51.400;6.692;2022-08-18T20:01:16;28.50;;;25.70;;
10212;SDS011;5150;51.400;6.692;2022-08-18T20:04:49;28.10;;;25.35;;
10212;SDS011;5150;51.400;6.692;2022-08-18T20:12:27;23.48;;;21.38;;
10212;SDS011;5150;51.400;6.692;2022-08-18T20:16:11;23.60;;;20.10;;
10212;SDS011;5150;51.400;6.692;2022-08-18T20:20:11;19.67;;;17.70;;
10212;SDS011;5150;51.400;6.692;2022-08-18T20:23:56;18.50;;;16.77;;
10212;SDS011;5150;51.400;6.692;2022-08-18T20:27:26;19.30;;;16.75;;
10212;SDS011;5150;51.400;6.692;2022-08-18T20:30:58;18.35;;;14.10;;
10212;SDS011;5150;51.400;6.692;2022-08-18T20:34:28;14.63;;;13.25;;
10212;SDS011;5150;51.400;6.692;2022-08-18T20:37:58;16.08;;;13.93;;
10212;SDS011;5150;51.400;6.692;2022-08-18T20:41:42;13.07;;;11.85;;
10212;SDS011;5150;51.400;6.692;2022-08-18T20:45:08;11.85;;;10.85;;
10212;SDS011;5150;51.400;6.692;2022-08-18T20:48:40;11.20;;;10.10;;
10212;SDS011;5150;51.400;6.692;2022-08-18T20:52:17;11.10;;;10.00;;
10212;SDS011;5150;51.400;6.692;2022-08-18T20:55:54;10.48;;;9.57;;
10212;SDS011;5150;51.400;6.692;2022-08-18T20:59:47;9.63;;;8.68;;
10212;SDS011;5150;51.400;6.692;2022-08-18T21:03:17;9.13;;;8.32;;
10212;SDS011;5150;51.400;6.692;2022-08-18T21:06:43;8.95;;;7.85;;
10212;SDS011;5150;51.400;6.692;2022-08-18T21:10:07;8.32;;;7.63;;
10212;SDS011;5150;51.400;6.692;2022-08-18T21:13:36;7.45;;;6.80;;
10212;SDS011;5150;51.400;6.692;2022-08-18T21:17:13;7.53;;;6.97;;
10212;SDS011;5150;51.400;6.692;2022-08-18T21:20:37;8.70;;;8.00;;
10212;SDS011;5150;51.400;6.692;2022-08-18T21:24:02;7.35;;;6.85;;
10212;SDS011;5150;51.400;6.692;2022-08-18T21:27:27;8.40;;;7.63;;
10212;SDS011;5150;51.400;6.692;2022-08-18T21:30:56;8.27;;;7.68;;